createdAt,value
2023-02-27T00:00:59.942Z,93.15
2023-02-27T00:01:59.904Z,93.47
2023-02-27T00:02:59.945Z,93.36
2023-02-27T00:03:59.941Z,93.26
2023-02-27T00:04:59.892Z,93.47
2023-02-27T00:05:59.922Z,93.26
2023-02-27T00:06:59.906Z,93.30
2023-02-27T00:07:59.857Z,93.30
2023-02-27T00:08:59.887Z,93.30
2023-02-27T00:09:59.835Z,93.62
2023-02-27T00:10:59.810Z,93.82
2023-02-27T00:11:59.833Z,93.72
2023-02-27T00:12:59.797Z,93.82
2023-02-27T00:13:59.811Z,93.72
2023-02-27T00:14:59.799Z,93.51
2023-02-27T00:15:59.810Z,93.62
2023-02-27T00:16:59.753Z,93.82
2023-02-27T00:17:59.755Z,93.97
2023-02-27T00:18:59.758Z,93.97
2023-02-27T00:19:59.738Z,94.18
2023-02-27T00:20:59.707Z,94.49
2023-02-27T00:21:59.715Z,94.71
2023-02-27T00:22:59.726Z,94.85
2023-02-27T00:23:59.706Z,94.85
2023-02-27T00:24:59.677Z,95.06
2023-02-27T00:25:59.701Z,95.38
2023-02-27T00:26:59.670Z,95.38
2023-02-27T00:27:59.661Z,95.38
2023-02-27T00:28:59.641Z,95.38
2023-02-27T00:29:59.636Z,95.38
2023-02-27T00:30:59.751Z,95.38
2023-02-27T00:31:59.758Z,95.28
2023-02-27T00:32:59.595Z,95.48
2023-02-27T00:33:59.630Z,95.70
2023-02-27T00:34:59.581Z,95.70
2023-02-27T00:35:59.584Z,95.70
2023-02-27T00:36:59.570Z,95.70
2023-02-27T00:37:59.559Z,95.70
2023-02-27T00:38:59.530Z,95.70
2023-02-27T00:39:59.551Z,95.90
2023-02-27T00:40:59.523Z,96.01
2023-02-27T00:41:59.523Z,96.12
2023-02-27T00:42:59.507Z,96.22
2023-02-27T00:43:59.500Z,96.22
2023-02-27T00:44:59.491Z,96.01
2023-02-27T00:45:59.490Z,95.90
2023-02-27T00:46:59.456Z,95.59
2023-02-27T00:47:59.472Z,95.59
2023-02-27T00:48:59.440Z,95.42
2023-02-27T00:49:59.428Z,95.53
2023-02-27T00:50:59.439Z,95.95
2023-02-27T00:51:59.433Z,96.16
2023-02-27T00:52:59.387Z,96.26
2023-02-27T00:53:59.403Z,96.37
2023-02-27T00:54:59.387Z,96.26
2023-02-27T00:55:59.405Z,96.47
2023-02-27T00:56:59.388Z,96.79
2023-02-27T00:57:59.345Z,96.95
2023-02-27T00:58:59.347Z,96.95
2023-02-27T00:59:59.340Z,96.70
2023-02-27T01:00:59.367Z,96.28
2023-02-27T01:01:59.324Z,96.07
2023-02-27T01:02:59.295Z,95.76
2023-02-27T01:03:59.297Z,95.44
2023-02-27T01:04:59.284Z,95.13
2023-02-27T01:05:59.286Z,94.92
2023-02-27T01:06:59.308Z,94.71
2023-02-27T01:07:59.266Z,94.71
2023-02-27T01:08:59.259Z,94.54
2023-02-27T01:09:59.238Z,94.33
2023-02-27T01:10:59.230Z,94.33
2023-02-27T01:11:59.209Z,94.54
2023-02-27T01:12:59.259Z,94.85
2023-02-27T01:13:59.213Z,95.00
2023-02-27T01:14:59.161Z,95.32
2023-02-27T01:15:59.194Z,95.53
2023-02-27T01:16:59.175Z,95.84
2023-02-27T01:17:59.190Z,96.26
2023-02-27T01:18:59.163Z,96.47
2023-02-27T01:19:59.146Z,96.73
2023-02-27T01:20:59.112Z,96.89
2023-02-27T01:21:59.125Z,97.05
2023-02-27T01:22:59.106Z,97.05
2023-02-27T01:23:59.126Z,97.15
2023-02-27T01:24:59.134Z,97.15
2023-02-27T01:25:59.087Z,97.25
2023-02-27T01:26:59.124Z,97.36
2023-02-27T01:27:59.091Z,97.47
2023-02-27T01:28:59.039Z,97.47
2023-02-27T01:29:59.057Z,97.57
2023-02-27T01:30:59.097Z,97.78
2023-02-27T01:31:59.111Z,97.94
2023-02-27T01:32:59.027Z,98.05
2023-02-27T01:33:59.018Z,98.16
2023-02-27T01:34:58.990Z,97.80
2023-02-27T01:35:58.990Z,97.12
2023-02-27T01:36:58.974Z,96.18
2023-02-27T01:37:58.956Z,95.54
2023-02-27T01:38:58.963Z,95.13
2023-02-27T01:39:58.956Z,95.02
2023-02-27T01:40:58.936Z,95.23
2023-02-27T01:41:58.942Z,95.23
2023-02-27T01:42:58.898Z,95.38
2023-02-27T01:43:58.903Z,95.28
2023-02-27T01:44:58.892Z,95.38
2023-02-27T01:45:58.945Z,95.38
2023-02-27T01:46:58.899Z,95.48
2023-02-27T01:47:58.907Z,95.70
2023-02-27T01:48:58.841Z,95.90
2023-02-27T01:49:58.866Z,96.01
2023-02-27T01:50:58.863Z,96.01
2023-02-27T01:51:58.835Z,96.01
2023-02-27T01:52:58.822Z,95.80
2023-02-27T01:53:58.829Z,95.70
2023-02-27T01:54:58.788Z,95.80
2023-02-27T01:55:58.806Z,96.01
2023-02-27T01:56:58.792Z,96.07
2023-02-27T01:57:58.760Z,95.97
2023-02-27T01:58:58.733Z,95.76
2023-02-27T01:59:58.753Z,95.54
2023-02-27T02:00:58.751Z,95.34
2023-02-27T02:01:58.756Z,95.13
2023-02-27T02:02:58.731Z,95.02
2023-02-27T02:03:58.700Z,95.02
2023-02-27T02:04:58.694Z,94.92
2023-02-27T02:05:58.720Z,94.75
2023-02-27T02:06:58.705Z,94.75
2023-02-27T02:07:58.719Z,94.75
2023-02-27T02:08:58.699Z,94.75
2023-02-27T02:09:58.647Z,94.85
2023-02-27T02:10:58.650Z,94.96
2023-02-27T02:11:58.618Z,95.21
2023-02-27T02:12:58.647Z,95.32
2023-02-27T02:13:58.656Z,95.53
2023-02-27T02:14:58.613Z,95.95
2023-02-27T02:15:58.576Z,96.47
2023-02-27T02:16:58.674Z,96.37
2023-02-27T02:17:58.604Z,96.33
2023-02-27T02:18:58.576Z,96.22
2023-02-27T02:19:58.538Z,96.01
2023-02-27T02:20:58.520Z,96.05
2023-02-27T02:21:58.540Z,95.90
2023-02-27T02:22:58.552Z,96.01
2023-02-27T02:23:58.519Z,96.12
2023-02-27T02:24:58.509Z,96.22
2023-02-27T02:25:58.493Z,96.01
2023-02-27T02:26:58.483Z,95.90
2023-02-27T02:27:58.485Z,96.12
2023-02-27T02:28:58.450Z,96.33
2023-02-27T02:29:58.486Z,96.22
2023-02-27T02:30:58.523Z,95.90
2023-02-27T02:31:58.538Z,95.76
2023-02-27T02:32:58.397Z,95.65
2023-02-27T02:33:58.395Z,95.54
2023-02-27T02:34:58.380Z,95.23
2023-02-27T02:35:58.425Z,94.92
2023-02-27T02:36:58.374Z,94.81
2023-02-27T02:37:58.384Z,94.81
2023-02-27T02:38:58.363Z,94.71
2023-02-27T02:39:58.402Z,94.49
2023-02-27T02:40:58.331Z,94.39
2023-02-27T02:41:58.347Z,94.39
2023-02-27T02:42:58.316Z,94.39
2023-02-27T02:43:58.339Z,94.39
2023-02-27T02:44:58.299Z,94.39
2023-02-27T02:45:58.341Z,94.18
2023-02-27T02:46:58.281Z,94.18
2023-02-27T02:47:58.263Z,94.29
2023-02-27T02:48:58.273Z,94.33
2023-02-27T02:49:58.357Z,94.43
2023-02-27T02:50:58.215Z,94.65
2023-02-27T02:51:58.257Z,94.85
2023-02-27T02:52:59.321Z,94.85
2023-02-27T02:53:58.220Z,94.75
2023-02-27T02:54:58.184Z,94.90
2023-02-27T02:55:58.212Z,95.32
2023-02-27T02:56:58.218Z,95.84
2023-02-27T02:57:58.192Z,95.95
2023-02-27T02:58:58.173Z,95.84
2023-02-27T02:59:58.185Z,95.84
2023-02-27T03:00:58.138Z,95.89
2023-02-27T03:01:58.198Z,95.99
2023-02-27T03:02:58.173Z,96.20
2023-02-27T03:03:58.129Z,96.20
2023-02-27T03:04:58.097Z,96.20
2023-02-27T03:05:58.112Z,96.14
2023-02-27T03:06:58.104Z,96.35
2023-02-27T03:07:58.068Z,96.45
2023-02-27T03:08:58.086Z,96.56
2023-02-27T03:09:58.057Z,96.35
2023-02-27T03:10:58.066Z,96.25
2023-02-27T03:11:58.050Z,96.25
2023-02-27T03:12:59.556Z,96.67
2023-02-27T03:13:58.009Z,96.77
2023-02-27T03:14:58.023Z,96.67
2023-02-27T03:15:58.033Z,96.88
2023-02-27T03:16:57.997Z,96.98
2023-02-27T03:17:57.963Z,96.98
2023-02-27T03:18:57.966Z,97.09
2023-02-27T03:19:57.936Z,97.09
2023-02-27T03:20:57.964Z,96.88
2023-02-27T03:21:57.930Z,96.45
2023-02-27T03:22:57.929Z,96.25
2023-02-27T03:23:57.908Z,96.19
2023-02-27T03:24:57.962Z,96.39
2023-02-27T03:25:58.469Z,96.35
2023-02-27T03:26:57.897Z,96.45
2023-02-27T03:27:57.862Z,96.88
2023-02-27T03:28:57.892Z,97.30
2023-02-27T03:29:57.873Z,97.51
2023-02-27T03:30:57.920Z,98.03
2023-02-27T03:31:57.979Z,98.14
2023-02-27T03:32:57.820Z,98.03
2023-02-27T03:33:58.596Z,98.30
2023-02-27T03:34:57.801Z,98.30
2023-02-27T03:35:57.771Z,98.16
2023-02-27T03:36:57.772Z,97.74
2023-02-27T03:37:57.801Z,97.27
2023-02-27T03:38:57.767Z,96.85
2023-02-27T03:39:57.750Z,96.53
2023-02-27T03:40:57.756Z,96.12
2023-02-27T03:41:57.727Z,95.90
2023-02-27T03:42:57.755Z,95.59
2023-02-27T03:43:57.702Z,95.59
2023-02-27T03:44:57.716Z,95.70
2023-02-27T03:45:57.720Z,95.80
2023-02-27T03:46:57.697Z,95.70
2023-02-27T03:47:57.666Z,95.70
2023-02-27T03:48:57.661Z,95.59
2023-02-27T03:49:57.705Z,95.38
2023-02-27T03:50:57.630Z,95.00
2023-02-27T03:51:57.645Z,94.58
2023-02-27T03:52:57.621Z,94.37
2023-02-27T03:53:57.706Z,93.95
2023-02-27T03:54:57.619Z,93.74
2023-02-27T03:55:57.589Z,93.74
2023-02-27T03:56:57.600Z,93.74
2023-02-27T03:57:57.570Z,93.53
2023-02-27T03:58:57.559Z,93.37
2023-02-27T03:59:57.556Z,93.47
2023-02-27T04:00:57.569Z,93.47
2023-02-27T04:01:57.579Z,93.68
2023-02-27T04:02:57.564Z,93.89
2023-02-27T04:03:57.514Z,94.21
2023-02-27T04:04:57.489Z,94.31
2023-02-27T04:05:57.535Z,94.25
2023-02-27T04:06:57.492Z,94.14
2023-02-27T04:07:57.466Z,94.14
2023-02-27T04:08:57.458Z,94.04
2023-02-27T04:09:57.441Z,94.14
2023-02-27T04:10:57.450Z,94.14
2023-02-27T04:11:57.425Z,94.04
2023-02-27T04:12:57.449Z,94.25
2023-02-27T04:13:57.393Z,94.29
2023-02-27T04:14:57.399Z,94.40
2023-02-27T04:15:57.438Z,94.71
2023-02-27T04:16:57.384Z,94.92
2023-02-27T04:17:57.363Z,95.39
2023-02-27T04:18:57.406Z,95.49
2023-02-27T04:19:57.367Z,96.23
2023-02-27T04:20:57.348Z,96.75
2023-02-27T04:21:57.323Z,97.33
2023-02-27T04:22:57.374Z,97.43
2023-02-27T04:23:57.316Z,97.53
2023-02-27T04:24:57.292Z,97.53
2023-02-27T04:25:57.274Z,97.64
2023-02-27T04:26:57.285Z,97.85
2023-02-27T04:27:57.282Z,98.17
2023-02-27T04:28:57.310Z,98.32
2023-02-27T04:29:57.270Z,98.53
2023-02-27T04:30:57.267Z,98.74
2023-02-27T04:31:57.410Z,98.95
2023-02-27T04:32:57.228Z,99.16
2023-02-27T04:33:57.231Z,99.48
2023-02-27T04:34:57.228Z,99.58
2023-02-27T04:35:57.249Z,99.79
2023-02-27T04:36:57.174Z,99.90
2023-02-27T04:37:57.178Z,99.90
2023-02-27T04:38:57.177Z,99.96
2023-02-27T04:39:57.163Z,99.96
2023-02-27T04:40:57.138Z,99.99
2023-02-27T04:41:57.151Z,99.99
2023-02-27T04:42:57.144Z,99.99
2023-02-27T04:43:57.116Z,99.99
2023-02-27T04:44:57.157Z,99.99
2023-02-27T04:45:57.177Z,99.96
2023-02-27T04:46:57.092Z,99.75
2023-02-27T04:47:57.067Z,99.75
2023-02-27T04:48:57.068Z,99.81
2023-02-27T04:49:57.064Z,99.91
2023-02-27T04:50:57.057Z,99.81
2023-02-27T04:51:57.113Z,99.70
2023-02-27T04:52:57.038Z,99.70
2023-02-27T04:53:57.023Z,99.60
2023-02-27T04:54:57.021Z,99.39
2023-02-27T04:55:57.012Z,99.28
2023-02-27T04:56:57.032Z,99.07
2023-02-27T04:57:56.992Z,98.97
2023-02-27T04:58:57.000Z,98.86
2023-02-27T04:59:56.990Z,99.07
2023-02-27T05:00:56.986Z,99.28
2023-02-27T05:01:56.997Z,99.39
2023-02-27T05:02:56.950Z,99.39
2023-02-27T05:03:58.893Z,99.39
2023-02-27T05:04:56.922Z,99.39
2023-02-27T05:05:56.924Z,99.28
2023-02-27T05:06:56.899Z,99.07
2023-02-27T05:07:56.881Z,99.01
2023-02-27T05:08:56.921Z,98.91
2023-02-27T05:09:56.848Z,98.80
2023-02-27T05:10:56.880Z,98.59
2023-02-27T05:11:56.854Z,98.59
2023-02-27T05:12:56.852Z,98.69
2023-02-27T05:13:56.811Z,98.69
2023-02-27T05:14:56.847Z,98.69
2023-02-27T05:15:56.858Z,98.80
2023-02-27T05:16:56.824Z,98.91
2023-02-27T05:17:56.803Z,99.05
2023-02-27T05:18:56.860Z,99.16
2023-02-27T05:19:56.769Z,99.27
2023-02-27T05:20:56.771Z,99.48
2023-02-27T05:21:56.870Z,99.48
2023-02-27T05:22:56.756Z,99.58
2023-02-27T05:23:57.545Z,99.37
2023-02-27T05:24:56.760Z,99.48
2023-02-27T05:25:56.692Z,99.58
2023-02-27T05:26:56.697Z,99.58
2023-02-27T05:27:56.678Z,99.63
2023-02-27T05:28:56.675Z,99.69
2023-02-27T05:29:56.669Z,99.79
2023-02-27T05:30:56.704Z,99.90
2023-02-27T05:31:56.761Z,99.90
2023-02-27T05:32:56.648Z,99.95
2023-02-27T05:33:56.644Z,99.90
2023-02-27T05:34:56.608Z,99.99
2023-02-27T05:35:56.609Z,99.99
2023-02-27T05:36:56.611Z,99.99
2023-02-27T05:37:56.622Z,99.99
2023-02-27T05:38:56.574Z,99.99
2023-02-27T05:39:56.582Z,99.99
2023-02-27T05:40:56.563Z,99.99
2023-02-27T05:41:56.575Z,99.99
2023-02-27T05:42:56.538Z,99.95
2023-02-27T05:43:56.527Z,99.84
2023-02-27T05:44:56.527Z,99.95
2023-02-27T05:45:56.552Z,99.95
2023-02-27T05:46:56.448Z,99.99
2023-02-27T05:47:56.433Z,99.99
2023-02-27T05:48:56.451Z,99.99
2023-02-27T05:49:56.405Z,99.99
2023-02-27T05:50:56.521Z,99.95
2023-02-27T05:51:57.270Z,99.88
2023-02-27T05:52:56.372Z,99.67
2023-02-27T05:53:56.407Z,99.46
2023-02-27T05:54:56.370Z,99.46
2023-02-27T05:55:56.352Z,99.57
2023-02-27T05:56:56.332Z,99.57
2023-02-27T05:57:56.356Z,99.35
2023-02-27T05:58:56.358Z,99.46
2023-02-27T05:59:56.298Z,99.57
2023-02-27T06:00:56.308Z,99.67
2023-02-27T06:01:56.359Z,99.78
2023-02-27T06:02:56.292Z,99.67
2023-02-27T06:03:56.294Z,99.67
2023-02-27T06:04:56.277Z,99.57
2023-02-27T06:05:56.248Z,99.25
2023-02-27T06:06:56.241Z,99.25
2023-02-27T06:07:56.211Z,99.35
2023-02-27T06:08:56.207Z,99.15
2023-02-27T06:09:56.206Z,99.04
2023-02-27T06:10:56.241Z,99.04
2023-02-27T06:11:56.210Z,99.15
2023-02-27T06:12:56.192Z,99.15
2023-02-27T06:13:56.194Z,99.04
2023-02-27T06:14:56.192Z,98.93
2023-02-27T06:15:56.152Z,98.93
2023-02-27T06:16:56.214Z,99.04
2023-02-27T06:17:56.122Z,99.04
2023-02-27T06:18:56.128Z,99.04
2023-02-27T06:19:56.106Z,99.04
2023-02-27T06:20:56.124Z,98.93
2023-02-27T06:21:56.099Z,98.93
2023-02-27T06:22:56.092Z,98.83
2023-02-27T06:23:56.055Z,98.72
2023-02-27T06:24:56.060Z,98.61
2023-02-27T06:25:56.050Z,98.51
2023-02-27T06:26:56.082Z,98.61
2023-02-27T06:27:56.026Z,98.83
2023-02-27T06:28:56.028Z,98.72
2023-02-27T06:29:56.058Z,98.72
2023-02-27T06:30:56.043Z,98.72
2023-02-27T06:31:55.983Z,98.61
2023-02-27T06:32:55.985Z,98.72
2023-02-27T06:33:55.992Z,98.93
2023-02-27T06:34:55.974Z,99.15
2023-02-27T06:35:55.992Z,99.35
2023-02-27T06:36:55.955Z,99.25
2023-02-27T06:37:55.955Z,99.04
2023-02-27T06:38:55.953Z,98.83
2023-02-27T06:39:55.907Z,98.61
2023-02-27T06:40:55.919Z,98.51
2023-02-27T06:41:55.923Z,98.30
2023-02-27T06:42:55.918Z,98.30
2023-02-27T06:43:55.896Z,98.19
2023-02-27T06:44:55.853Z,98.19
2023-02-27T06:45:55.937Z,98.19
2023-02-27T06:46:55.830Z,98.41
2023-02-27T06:47:55.815Z,98.51
2023-02-27T06:48:55.817Z,98.72
2023-02-27T06:49:55.824Z,98.83
2023-02-27T06:50:55.834Z,98.72
2023-02-27T06:51:55.789Z,98.61
2023-02-27T06:52:55.787Z,98.93
2023-02-27T06:53:55.746Z,98.93
2023-02-27T06:54:55.750Z,98.72
2023-02-27T06:55:55.729Z,98.51
2023-02-27T06:56:55.744Z,98.19
2023-02-27T06:57:55.731Z,97.77
2023-02-27T06:58:56.539Z,97.56
2023-02-27T06:59:55.698Z,97.67
2023-02-27T07:00:55.725Z,97.67
2023-02-27T07:01:55.688Z,97.77
2023-02-27T07:02:55.694Z,97.88
2023-02-27T07:03:55.657Z,98.09
2023-02-27T07:04:55.726Z,98.61
2023-02-27T07:05:55.621Z,99.04
2023-02-27T07:07:35.977Z,99.41
2023-02-27T07:07:57.787Z,99.67
2023-02-27T07:09:06.593Z,99.78
2023-02-27T07:09:55.648Z,99.84
2023-02-27T07:10:55.651Z,99.73
2023-02-27T07:11:55.570Z,99.95
2023-02-27T07:12:55.577Z,99.63
2023-02-27T07:13:55.617Z,99.41
2023-02-27T07:14:55.557Z,99.31
2023-02-27T07:15:55.569Z,99.31
2023-02-27T07:16:55.561Z,99.41
2023-02-27T07:17:55.560Z,99.52
2023-02-27T07:18:55.532Z,99.73
2023-02-27T07:19:55.509Z,99.99
2023-02-27T07:20:55.481Z,99.99
2023-02-27T07:21:55.474Z,99.99
2023-02-27T07:22:55.510Z,99.99
2023-02-27T07:23:55.480Z,99.99
2023-02-27T07:24:55.475Z,99.99
2023-02-27T07:25:55.453Z,99.99
2023-02-27T07:26:55.450Z,99.99
2023-02-27T07:27:55.432Z,99.99
2023-02-27T07:28:55.432Z,99.99
2023-02-27T07:29:55.437Z,99.99
2023-02-27T07:30:55.453Z,99.99
2023-02-27T07:31:55.403Z,99.99
2023-02-27T07:32:55.378Z,99.99
2023-02-27T07:33:55.401Z,99.99
2023-02-27T07:34:55.419Z,99.99
2023-02-27T07:35:55.359Z,99.99
2023-02-27T07:36:55.417Z,99.99
2023-02-27T07:37:55.319Z,99.99
2023-02-27T07:38:55.304Z,99.99
2023-02-27T07:39:55.381Z,99.99
2023-02-27T07:40:55.338Z,99.99
2023-02-27T07:41:55.326Z,99.99
2023-02-27T07:42:55.307Z,99.99
2023-02-27T07:43:55.267Z,99.11
2023-02-27T07:44:55.236Z,98.13
2023-02-27T07:45:55.269Z,97.50
2023-02-27T07:46:55.316Z,97.18
2023-02-27T07:47:55.247Z,96.87
2023-02-27T07:48:55.227Z,96.61
2023-02-27T07:49:55.282Z,96.41
2023-02-27T07:50:55.250Z,96.51
2023-02-27T07:51:55.199Z,95.98
2023-02-27T07:52:55.200Z,95.56
2023-02-27T07:53:55.164Z,95.42
2023-02-27T07:54:55.174Z,95.52
2023-02-27T07:55:55.181Z,94.79
2023-02-27T07:56:55.150Z,94.47
2023-02-27T07:57:55.128Z,94.47
2023-02-27T07:58:55.105Z,94.47
2023-02-27T07:59:55.160Z,94.16
2023-02-27T08:00:55.099Z,94.12
2023-02-27T08:01:55.090Z,94.22
2023-02-27T08:02:55.094Z,92.92
2023-02-27T08:03:55.113Z,92.40
2023-02-27T08:04:55.164Z,92.50
2023-02-27T08:05:55.114Z,92.82
2023-02-27T08:06:55.039Z,92.92
2023-02-27T08:07:55.033Z,92.77
2023-02-27T08:08:55.038Z,92.67
2023-02-27T08:09:55.038Z,92.35
2023-02-27T08:10:54.993Z,92.25
2023-02-27T08:11:55.024Z,92.25
2023-02-27T08:12:55.582Z,92.25
2023-02-27T08:14:00.540Z,92.46
2023-02-27T08:14:54.953Z,92.57
2023-02-27T08:15:54.984Z,92.10
2023-02-27T08:16:54.935Z,92.00
2023-02-27T08:17:54.933Z,92.10
2023-02-27T08:18:54.943Z,92.10
2023-02-27T08:19:54.907Z,92.00
2023-02-27T08:20:54.928Z,91.89
2023-02-27T08:21:54.916Z,91.89
2023-02-27T08:22:54.878Z,91.79
2023-02-27T08:23:54.883Z,91.79
2023-02-27T08:24:54.850Z,91.69
2023-02-27T08:25:54.898Z,91.54
2023-02-27T08:26:54.850Z,91.75
2023-02-27T08:27:54.871Z,91.64
2023-02-27T08:28:54.882Z,91.33
2023-02-27T08:29:54.879Z,90.81
2023-02-27T08:30:54.800Z,90.70
2023-02-27T08:31:54.998Z,90.59
2023-02-27T08:32:54.782Z,90.70
2023-02-27T08:34:04.555Z,90.59
2023-02-27T08:34:54.899Z,91.18
2023-02-27T08:35:54.827Z,91.08
2023-02-27T08:36:54.799Z,90.87
2023-02-27T08:37:54.748Z,90.56
2023-02-27T08:38:54.714Z,89.83
2023-02-27T08:39:54.748Z,89.99
2023-02-27T08:40:54.678Z,89.47
2023-02-27T08:41:54.712Z,89.68
2023-02-27T08:42:54.703Z,89.68
2023-02-27T08:43:54.693Z,89.05
2023-02-27T08:44:54.648Z,89.58
2023-02-27T08:45:54.752Z,89.36
2023-02-27T08:46:54.626Z,88.70
2023-02-27T08:47:54.736Z,88.49
2023-02-27T08:48:54.692Z,88.59
2023-02-27T08:49:54.625Z,88.90
2023-02-27T08:50:56.221Z,87.96
2023-02-27T08:51:54.631Z,88.03
2023-02-27T08:52:54.556Z,88.24
2023-02-27T08:53:54.603Z,87.09
2023-02-27T08:54:54.579Z,87.71
2023-02-27T08:55:54.591Z,87.88
2023-02-27T08:56:54.562Z,88.09
2023-02-27T08:57:54.540Z,88.51
2023-02-27T08:58:54.542Z,87.88
2023-02-27T08:59:54.596Z,87.47
2023-02-27T09:00:54.542Z,87.01
2023-02-27T09:01:54.518Z,85.86
2023-02-27T09:02:54.587Z,85.30
2023-02-27T09:03:54.490Z,85.30
2023-02-27T09:04:54.489Z,83.84
2023-02-27T09:05:54.465Z,84.22
2023-02-27T09:06:54.481Z,83.59
2023-02-27T09:07:54.447Z,83.80
2023-02-27T09:08:54.418Z,83.25
2023-02-27T09:09:54.418Z,83.04
2023-02-27T09:10:54.402Z,82.93
2023-02-27T09:11:54.524Z,82.06
2023-02-27T09:12:54.387Z,81.12
2023-02-27T09:13:54.383Z,81.96
2023-02-27T09:14:54.345Z,79.56
2023-02-27T09:15:54.408Z,80.71
2023-02-27T09:16:54.402Z,81.29
2023-02-27T09:17:54.341Z,81.71
2023-02-27T09:18:54.308Z,81.92
2023-02-27T09:19:56.514Z,81.88
2023-02-27T09:20:54.327Z,81.77
2023-02-27T09:21:54.292Z,81.36
2023-02-27T09:22:54.341Z,79.24
2023-02-27T09:23:54.270Z,79.55
2023-02-27T09:24:54.267Z,80.18
2023-02-27T09:25:54.345Z,80.80
2023-02-27T09:26:54.270Z,79.66
2023-02-27T09:27:54.270Z,79.52
2023-02-27T09:28:54.246Z,78.27
2023-02-27T09:29:54.208Z,77.65
2023-02-27T09:30:54.184Z,76.89
2023-02-27T09:31:54.324Z,76.26
2023-02-27T09:32:54.243Z,77.09
2023-02-27T09:33:54.207Z,78.03
2023-02-27T09:34:54.170Z,77.26
2023-02-27T09:35:54.210Z,76.43
2023-02-27T09:36:54.163Z,75.81
2023-02-27T09:37:54.135Z,76.54
2023-02-27T09:38:54.186Z,77.23
2023-02-27T09:39:54.156Z,76.09
2023-02-27T09:40:54.124Z,75.88
2023-02-27T09:41:54.067Z,75.64
2023-02-27T09:42:54.087Z,74.81
2023-02-27T09:43:54.078Z,73.36
2023-02-27T09:44:54.052Z,73.25
2023-02-27T09:45:54.067Z,73.15
2023-02-27T09:46:54.076Z,73.05
2023-02-27T09:47:54.048Z,73.25
2023-02-27T09:48:54.034Z,73.25
2023-02-27T09:49:53.998Z,73.57
2023-02-27T09:50:54.023Z,74.29
2023-02-27T09:51:53.984Z,73.98
2023-02-27T09:52:54.006Z,73.15
2023-02-27T09:53:54.018Z,73.43
2023-02-27T09:54:54.003Z,73.25
2023-02-27T09:55:54.022Z,73.77
2023-02-27T09:56:53.917Z,74.57
2023-02-27T09:57:53.918Z,73.84
2023-02-27T09:58:53.953Z,71.97
2023-02-27T09:59:53.925Z,71.35
2023-02-27T10:00:53.878Z,70.83
2023-02-27T10:01:53.902Z,71.66
2023-02-27T10:02:54.062Z,71.97
2023-02-27T10:03:53.970Z,71.66
2023-02-27T10:04:53.854Z,72.60
2023-02-27T10:05:53.911Z,72.60
2023-02-27T10:06:53.844Z,71.84
2023-02-27T10:07:53.925Z,71.32
2023-02-27T10:08:53.841Z,70.80
2023-02-27T10:09:53.822Z,71.01
2023-02-27T10:10:53.880Z,71.11
2023-02-27T10:11:53.779Z,69.87
2023-02-27T10:12:53.757Z,70.18
2023-02-27T10:13:53.748Z,69.76
2023-02-27T10:14:53.762Z,70.90
2023-02-27T10:15:53.753Z,70.18
2023-02-27T10:16:53.836Z,70.04
2023-02-27T10:17:53.737Z,69.53
2023-02-27T10:18:53.691Z,68.70
2023-02-27T10:19:53.790Z,68.80
2023-02-27T10:20:53.659Z,68.38
2023-02-27T10:21:53.728Z,68.87
2023-02-27T10:22:53.663Z,69.73
2023-02-27T10:23:53.711Z,68.49
2023-02-27T10:24:53.636Z,67.97
2023-02-27T10:25:53.622Z,68.59
2023-02-27T10:26:53.603Z,68.25
2023-02-27T10:27:53.710Z,67.73
2023-02-27T10:28:53.628Z,66.38
2023-02-27T10:29:53.644Z,66.38
2023-02-27T10:30:53.628Z,67.63
2023-02-27T10:31:53.799Z,66.28
2023-02-27T10:32:53.541Z,67.52
2023-02-27T10:33:53.542Z,66.90
2023-02-27T10:34:53.561Z,67.49
2023-02-27T10:35:53.748Z,68.01
2023-02-27T10:36:53.636Z,67.29
2023-02-27T10:37:53.553Z,68.22
2023-02-27T10:38:53.607Z,69.22
2023-02-27T10:39:53.511Z,69.43
2023-02-27T10:40:53.527Z,68.29
2023-02-27T10:41:53.492Z,67.77
2023-02-27T10:42:53.558Z,66.81
2023-02-27T10:43:53.443Z,66.29
2023-02-27T10:44:53.611Z,67.43
2023-02-27T10:45:53.481Z,66.39
2023-02-27T10:46:53.505Z,66.91
2023-02-27T10:47:53.388Z,65.67
2023-02-27T10:48:53.462Z,65.57
2023-02-27T10:49:53.464Z,66.39
2023-02-27T10:50:53.397Z,67.22
2023-02-27T10:51:53.363Z,68.36
2023-02-27T10:52:53.452Z,65.78
2023-02-27T10:53:53.362Z,66.50
2023-02-27T10:54:53.361Z,68.05
2023-02-27T10:55:53.360Z,68.43
2023-02-27T10:56:53.308Z,66.47
2023-02-27T10:57:53.368Z,65.44
2023-02-27T10:58:53.267Z,65.64
2023-02-27T10:59:53.336Z,66.26
2023-02-27T11:00:53.254Z,65.85
2023-02-27T11:01:53.376Z,65.12
2023-02-27T11:02:53.263Z,66.71
2023-02-27T11:03:53.259Z,67.43
2023-02-27T11:04:53.244Z,66.57
2023-02-27T11:05:53.204Z,68.57
2023-02-27T11:06:53.216Z,68.43
2023-02-27T11:07:53.215Z,68.85
2023-02-27T11:08:53.179Z,67.91
2023-02-27T11:09:53.233Z,66.47
2023-02-27T11:10:53.136Z,66.03
2023-02-27T11:11:53.212Z,65.09
2023-02-27T11:12:53.274Z,65.30
2023-02-27T11:13:53.140Z,65.41
2023-02-27T11:14:53.112Z,65.69
2023-02-27T11:15:53.215Z,63.72
2023-02-27T11:16:53.110Z,64.45
2023-02-27T11:17:53.102Z,64.21
2023-02-27T11:18:53.048Z,64.45
2023-02-27T11:19:53.069Z,64.78
2023-02-27T11:20:53.047Z,64.40
2023-02-27T11:21:53.070Z,65.99
2023-02-27T11:22:53.018Z,66.09
2023-02-27T11:23:53.050Z,66.12
2023-02-27T11:24:53.057Z,65.81
2023-02-27T11:25:52.999Z,66.87
2023-02-27T11:26:52.968Z,68.01
2023-02-27T11:27:52.987Z,66.66
2023-02-27T11:28:53.295Z,66.15
2023-02-27T11:29:52.955Z,66.15
2023-02-27T11:30:53.014Z,66.69
2023-02-27T11:31:52.961Z,66.59
2023-02-27T11:32:52.965Z,67.32
2023-02-27T11:33:52.926Z,67.11
2023-02-27T11:34:52.942Z,68.35
2023-02-27T11:35:57.542Z,68.35
2023-02-27T11:36:52.892Z,68.04
2023-02-27T11:37:52.925Z,67.32
2023-02-27T11:38:52.856Z,67.83
2023-02-27T11:39:52.896Z,66.80
2023-02-27T11:40:52.861Z,67.94
2023-02-27T11:41:52.879Z,68.35
2023-02-27T11:42:52.841Z,67.21
2023-02-27T11:43:52.806Z,67.45
2023-02-27T11:44:52.883Z,68.07
2023-02-27T11:46:18.842Z,65.80
2023-02-27T11:46:52.848Z,66.90
2023-02-27T11:47:52.806Z,67.11
2023-02-27T11:48:52.775Z,67.32
2023-02-27T11:49:52.776Z,66.49
2023-02-27T11:50:52.800Z,66.80
2023-02-27T11:51:52.758Z,67.24
2023-02-27T11:52:52.729Z,68.18
2023-02-27T11:53:52.736Z,67.76
2023-02-27T11:54:52.720Z,69.11
2023-02-27T11:55:52.756Z,66.69
2023-02-27T11:56:52.726Z,66.66
2023-02-27T11:57:52.653Z,66.02
2023-02-27T11:58:52.665Z,65.78
2023-02-27T11:59:52.685Z,63.37
2023-02-27T12:00:52.656Z,63.06
2023-02-27T12:01:52.622Z,62.75
2023-02-27T12:02:52.667Z,63.57
2023-02-27T12:03:52.702Z,65.16
2023-02-27T12:04:52.605Z,64.32
2023-02-27T12:05:52.600Z,64.84
2023-02-27T12:06:52.596Z,65.60
2023-02-27T12:07:54.271Z,66.32
2023-02-27T12:08:52.609Z,67.25
2023-02-27T12:09:52.574Z,67.46
2023-02-27T12:10:54.139Z,69.01
2023-02-27T12:11:52.516Z,68.70
2023-02-27T12:12:52.730Z,68.74
2023-02-27T12:13:52.476Z,68.01
2023-02-27T12:14:52.537Z,69.04
2023-02-27T12:15:52.507Z,67.42
2023-02-27T12:16:52.466Z,69.18
2023-02-27T12:17:52.487Z,69.04
2023-02-27T12:18:52.487Z,68.22
2023-02-27T12:19:52.456Z,67.05
2023-02-27T12:20:52.456Z,66.32
2023-02-27T12:21:52.457Z,67.67
2023-02-27T12:22:52.418Z,66.77
2023-02-27T12:23:52.418Z,66.46
2023-02-27T12:24:52.398Z,67.32
2023-02-27T12:25:52.389Z,68.77
2023-02-27T12:26:52.374Z,68.90
2023-02-27T12:27:52.361Z,68.80
2023-02-27T12:28:52.338Z,68.59
2023-02-27T12:29:52.413Z,69.01
2023-02-27T12:30:52.332Z,69.80
2023-02-27T12:31:52.410Z,68.04
2023-02-27T12:32:52.345Z,66.69
2023-02-27T12:33:52.321Z,67.60
2023-02-27T12:34:52.263Z,67.67
2023-02-27T12:35:52.357Z,68.08
2023-02-27T12:36:52.292Z,66.32
2023-02-27T12:37:52.250Z,65.81
2023-02-27T12:38:52.246Z,66.94
2023-02-27T12:39:52.196Z,66.09
2023-02-27T12:40:52.221Z,65.12
2023-02-27T12:41:52.224Z,65.95
2023-02-27T12:42:52.210Z,66.44
2023-02-27T12:43:52.229Z,67.27
2023-02-27T12:44:52.155Z,64.65
2023-02-27T12:45:52.244Z,62.41
2023-02-27T12:46:52.157Z,63.13
2023-02-27T12:47:52.135Z,64.68
2023-02-27T12:48:52.117Z,64.86
2023-02-27T12:49:52.135Z,64.24
2023-02-27T12:50:52.123Z,62.76
2023-02-27T12:51:52.101Z,62.12
2023-02-27T12:52:52.091Z,62.84